sensor_id;sensor_type;location;lat;lon;timestamp;pressure;altitude;pressure_sealevel;temperature;humidity
21574;BME280;10948;48.706;9.258;2023-01-15T00:01:26;96679.81;;;10.48;100.00
21574;BME280;10948;48.706;9.258;2023-01-15T00:03:52;96674.72;;;10.58;100.00
21574;BME280;10948;48.706;9.258;2023-01-15T00:06:18;96659.47;;;10.42;100.00
21574;BME280;10948;48.706;9.258;2023-01-15T00:08:44;96662.56;;;10.47;100.00
21574;BME280;10948;48.706;9.258;2023-01-15T00:11:09;96660.19;;;10.33;100.00
21574;BME280;10948;48.706;9.258;2023-01-15T00:13:34;96656.88;;;10.42;100.00
21574;BME280;10948;48.706;9.258;2023-01-15T00:16:06;96641.41;;;10.41;100.00
21574;BME280;10948;48.706;9.258;2023-01-15T00:18:32;96634.66;;;10.49;100.00
21574;BME280;10948;48.706;9.258;2023-01-15T00:20:58;96639.84;;;10.49;100.00
21574;BME280;10948;48.706;9.258;2023-01-15T00:23:23;96642.22;;;10.41;100.00
21574;BME280;10948;48.706;9.258;2023-01-15T00:26:08;96629.94;;;10.43;100.00
21574;BME280;10948;48.706;9.258;2023-01-15T00:28:53;96615.16;;;10.55;100.00
21574;BME280;10948;48.706;9.258;2023-01-15T00:31:18;96614.56;;;10.51;100.00
21574;BME280;10948;48.706;9.258;2023-01-15T00:33:44;96611.50;;;10.46;100.00
21574;BME280;10948;48.706;9.258;2023-01-15T00:36:09;96612.44;;;10.45;100.00
21574;BME280;10948;48.706;9.258;2023-01-15T00:38:34;96617.16;;;10.51;100.00
21574;BME280;10948;48.706;9.258;2023-01-15T00:40:59;96607.09;;;10.58;100.00
21574;BME280;10948;48.706;9.258;2023-01-15T00:43:24;96605.81;;;10.52;100.00
21574;BME280;10948;48.706;9.258;2023-01-15T00:45:49;96600.59;;;10.63;100.00
21574;BME280;10948;48.706;9.258;2023-01-15T00:48:15;96595.41;;;10.63;100.00
21574;BME280;10948;48.706;9.258;2023-01-15T00:50:40;96589.34;;;10.63;100.00
21574;BME280;10948;48.706;9.258;2023-01-15T00:53:05;96586.75;;;10.74;100.00
21574;BME280;10948;48.706;9.258;2023-01-15T00:55:31;96585.41;;;10.79;100.00
21574;BME280;10948;48.706;9.258;2023-01-15T00:57:56;96569.53;;;10.82;100.00
21574;BME280;10948;48.706;9.258;2023-01-15T01:00:21;96554.88;;;10.81;100.00
21574;BME280;10948;48.706;9.258;2023-01-15T01:02:46;96557.00;;;10.87;100.00
21574;BME280;10948;48.706;9.258;2023-01-15T01:05:11;96560.38;;;10.67;100.00
21574;BME280;10948;48.706;9.258;2023-01-15T01:07:37;96552.91;;;10.74;100.00
21574;BME280;10948;48.706;9.258;2023-01-15T01:10:02;96553.94;;;10.82;100.00
21574;BME280;10948;48.706;9.258;2023-01-15T01:12:27;96550.06;;;10.77;100.00
21574;BME280;10948;48.706;9.258;2023-01-15T01:14:53;96544.75;;;10.98;100.00
21574;BME280;10948;48.706;9.258;2023-01-15T01:17:18;96540.00;;;10.83;100.00
21574;BME280;10948;48.706;9.258;2023-01-15T01:19:43;96539.25;;;10.92;100.00
21574;BME280;10948;48.706;9.258;2023-01-15T01:22:08;96547.66;;;10.84;100.00
21574;BME280;10948;48.706;9.258;2023-01-15T01:24:33;96535.38;;;10.87;100.00
21574;BME280;10948;48.706;9.258;2023-01-15T01:26:59;96534.78;;;10.83;100.00
21574;BME280;10948;48.706;9.258;2023-01-15T01:29:24;96527.69;;;10.85;100.00
21574;BME280;10948;48.706;9.258;2023-01-15T01:31:49;96530.41;;;10.83;100.00
21574;BME280;10948;48.706;9.258;2023-01-15T01:34:15;96524.97;;;10.87;100.00
21574;BME280;10948;48.706;9.258;2023-01-15T01:36:41;96534.06;;;10.81;100.00
21574;BME280;10948;48.706;9.258;2023-01-15T01:39:07;96546.59;;;10.87;100.00
21574;BME280;10948;48.706;9.258;2023-01-15T01:41:34;96537.59;;;10.91;100.00
21574;BME280;10948;48.706;9.258;2023-01-15T01:44:00;96545.19;;;10.83;100.00
21574;BME280;10948;48.706;9.258;2023-01-15T01:46:26;96533.53;;;10.98;100.00
21574;BME280;10948;48.706;9.258;2023-01-15T01:49:13;96538.56;;;10.90;100.00
21574;BME280;10948;48.706;9.258;2023-01-15T01:51:39;96529.06;;;10.89;100.00
21574;BME280;10948;48.706;9.258;2023-01-15T01:54:05;96529.91;;;10.89;100.00
21574;BME280;10948;48.706;9.258;2023-01-15T01:56:33;96532.97;;;10.94;100.00
21574;BME280;10948;48.706;9.258;2023-01-15T01:59:00;96525.84;;;10.96;100.00
21574;BME280;10948;48.706;9.258;2023-01-15T02:01:26;96518.81;;;11.08;100.00
21574;BME280;10948;48.706;9.258;2023-01-15T02:03:51;96521.56;;;11.06;100.00
21574;BME280;10948;48.706;9.258;2023-01-15T02:06:17;96510.81;;;11.00;100.00
21574;BME280;10948;48.706;9.258;2023-01-15T02:08:42;96522.75;;;11.02;100.00
21574;BME280;10948;48.706;9.258;2023-01-15T02:11:11;96504.59;;;11.12;100.00
21574;BME280;10948;48.706;9.258;2023-01-15T02:13:39;96503.19;;;11.08;100.00
21574;BME280;10948;48.706;9.258;2023-01-15T02:21:13;96500.75;;;11.06;100.00
21574;BME280;10948;48.706;9.258;2023-01-15T02:28:41;96492.78;;;11.08;100.00
21574;BME280;10948;48.706;9.258;2023-01-15T02:31:16;96485.16;;;11.16;100.00
21574;BME280;10948;48.706;9.258;2023-01-15T02:33:45;96486.19;;;11.04;100.00
21574;BME280;10948;48.706;9.258;2023-01-15T02:36:14;96482.81;;;11.13;100.00
21574;BME280;10948;48.706;9.258;2023-01-15T02:38:42;96476.91;;;11.11;100.00
21574;BME280;10948;48.706;9.258;2023-01-15T02:41:08;96476.16;;;11.20;100.00
21574;BME280;10948;48.706;9.258;2023-01-15T02:43:40;96478.25;;;11.26;100.00
21574;BME280;10948;48.706;9.258;2023-01-15T02:46:07;96479.94;;;11.16;100.00
21574;BME280;10948;48.706;9.258;2023-01-15T02:48:33;96478.69;;;11.10;100.00
21574;BME280;10948;48.706;9.258;2023-01-15T02:51:01;96477.31;;;11.06;100.00
21574;BME280;10948;48.706;9.258;2023-01-15T02:53:28;96466.00;;;11.17;100.00
21574;BME280;10948;48.706;9.258;2023-01-15T02:55:55;96469.13;;;11.11;100.00
21574;BME280;10948;48.706;9.258;2023-01-15T02:58:27;96465.09;;;11.07;100.00
21574;BME280;10948;48.706;9.258;2023-01-15T03:00:54;96460.22;;;11.13;100.00
21574;BME280;10948;48.706;9.258;2023-01-15T03:03:30;96459.19;;;11.25;100.00
21574;BME280;10948;48.706;9.258;2023-01-15T03:06:06;96466.25;;;11.14;100.00
21574;BME280;10948;48.706;9.258;2023-01-15T03:08:33;96459.13;;;11.16;100.00
21574;BME280;10948;48.706;9.258;2023-01-15T03:11:11;96453.41;;;11.22;100.00
21574;BME280;10948;48.706;9.258;2023-01-15T03:13:45;96454.81;;;11.26;100.00
21574;BME280;10948;48.706;9.258;2023-01-15T03:18:58;96459.13;;;11.16;100.00
21574;BME280;10948;48.706;9.258;2023-01-15T03:21:28;96457.47;;;11.15;100.00
21574;BME280;10948;48.706;9.258;2023-01-15T03:23:55;96448.47;;;11.19;100.00
21574;BME280;10948;48.706;9.258;2023-01-15T03:26:25;96451.69;;;11.11;100.00
21574;BME280;10948;48.706;9.258;2023-01-15T03:28:51;96450.38;;;11.17;100.00
21574;BME280;10948;48.706;9.258;2023-01-15T03:31:17;96451.84;;;11.10;100.00
21574;BME280;10948;48.706;9.258;2023-01-15T03:33:42;96457.06;;;11.10;100.00
21574;BME280;10948;48.706;9.258;2023-01-15T03:36:08;96446.69;;;10.99;100.00
21574;BME280;10948;48.706;9.258;2023-01-15T03:38:35;96455.25;;;11.10;100.00
21574;BME280;10948;48.706;9.258;2023-01-15T03:43:49;96444.53;;;11.04;100.00
21574;BME280;10948;48.706;9.258;2023-01-15T03:48:54;96435.31;;;11.00;100.00
21574;BME280;10948;48.706;9.258;2023-01-15T03:51:24;96444.19;;;10.97;100.00
21574;BME280;10948;48.706;9.258;2023-01-15T03:53:56;96451.81;;;10.89;100.00
21574;BME280;10948;48.706;9.258;2023-01-15T03:56:32;96446.94;;;10.96;100.00
21574;BME280;10948;48.706;9.258;2023-01-15T04:01:35;96436.28;;;10.99;100.00
21574;BME280;10948;48.706;9.258;2023-01-15T04:04:04;96445.53;;;10.92;100.00
21574;BME280;10948;48.706;9.258;2023-01-15T04:06:31;96443.75;;;10.92;100.00
21574;BME280;10948;48.706;9.258;2023-01-15T04:08:57;96440.72;;;10.88;100.00
21574;BME280;10948;48.706;9.258;2023-01-15T04:11:23;96436.41;;;10.97;100.00
21574;BME280;10948;48.706;9.258;2023-01-15T04:13:49;96434.63;;;10.98;100.00
21574;BME280;10948;48.706;9.258;2023-01-15T04:16:15;96427.78;;;10.97;100.00
21574;BME280;10948;48.706;9.258;2023-01-15T04:18:40;96425.59;;;11.02;100.00
21574;BME280;10948;48.706;9.258;2023-01-15T04:21:06;96425.34;;;11.05;100.00
21574;BME280;10948;48.706;9.258;2023-01-15T04:23:31;96417.56;;;11.05;100.00
21574;BME280;10948;48.706;9.258;2023-01-15T04:25:56;96422.31;;;11.00;100.00
21574;BME280;10948;48.706;9.258;2023-01-15T04:28:21;96392.72;;;11.01;100.00
21574;BME280;10948;48.706;9.258;2023-01-15T04:30:46;96402.56;;;10.97;100.00
21574;BME280;10948;48.706;9.258;2023-01-15T04:33:12;96402.31;;;11.00;100.00
21574;BME280;10948;48.706;9.258;2023-01-15T04:35:37;96396.41;;;10.98;100.00
21574;BME280;10948;48.706;9.258;2023-01-15T04:38:02;96404.91;;;11.00;100.00
21574;BME280;10948;48.706;9.258;2023-01-15T04:40:28;96414.63;;;10.98;100.00
21574;BME280;10948;48.706;9.258;2023-01-15T04:43:12;96409.16;;;11.01;100.00
21574;BME280;10948;48.706;9.258;2023-01-15T04:45:57;96409.97;;;11.02;100.00
21574;BME280;10948;48.706;9.258;2023-01-15T04:48:22;96409.06;;;11.03;100.00
21574;BME280;10948;48.706;9.258;2023-01-15T04:50:48;96410.47;;;10.96;100.00
21574;BME280;10948;48.706;9.258;2023-01-15T04:53:13;96412.16;;;10.97;100.00
21574;BME280;10948;48.706;9.258;2023-01-15T04:55:38;96406.81;;;10.98;100.00
21574;BME280;10948;48.706;9.258;2023-01-15T04:58:03;96397.91;;;11.01;100.00
21574;BME280;10948;48.706;9.258;2023-01-15T05:00:28;96404.84;;;10.91;100.00
21574;BME280;10948;48.706;9.258;2023-01-15T05:02:54;96384.22;;;10.99;100.00
21574;BME280;10948;48.706;9.258;2023-01-15T05:05:19;96382.31;;;11.01;100.00
21574;BME280;10948;48.706;9.258;2023-01-15T05:07:44;96383.09;;;10.92;100.00
21574;BME280;10948;48.706;9.258;2023-01-15T05:10:09;96393.50;;;10.92;100.00
21574;BME280;10948;48.706;9.258;2023-01-15T05:12:35;96387.66;;;10.99;100.00
21574;BME280;10948;48.706;9.258;2023-01-15T05:15:00;96394.13;;;11.05;100.00
21574;BME280;10948;48.706;9.258;2023-01-15T05:17:25;96386.19;;;11.06;100.00
21574;BME280;10948;48.706;9.258;2023-01-15T05:19:51;96376.47;;;11.08;100.00
21574;BME280;10948;48.706;9.258;2023-01-15T05:22:16;96377.16;;;11.10;100.00
21574;BME280;10948;48.706;9.258;2023-01-15T05:24:41;96374.16;;;11.15;100.00
21574;BME280;10948;48.706;9.258;2023-01-15T05:27:06;96375.00;;;11.15;100.00
21574;BME280;10948;48.706;9.258;2023-01-15T05:29:32;96375.22;;;11.12;100.00
21574;BME280;10948;48.706;9.258;2023-01-15T05:31:57;96376.75;;;11.15;100.00
21574;BME280;10948;48.706;9.258;2023-01-15T05:34:22;96381.78;;;11.07;100.00
21574;BME280;10948;48.706;9.258;2023-01-15T05:36:47;96386.69;;;11.00;100.00
21574;BME280;10948;48.706;9.258;2023-01-15T05:39:13;96407.88;;;10.96;100.00
21574;BME280;10948;48.706;9.258;2023-01-15T05:41:38;96407.94;;;11.05;100.00
21574;BME280;10948;48.706;9.258;2023-01-15T05:44:13;96422.44;;;11.19;100.00
21574;BME280;10948;48.706;9.258;2023-01-15T05:46:39;96439.97;;;11.17;100.00
21574;BME280;10948;48.706;9.258;2023-01-15T05:49:06;96463.56;;;10.84;100.00
21574;BME280;10948;48.706;9.258;2023-01-15T05:51:32;96482.69;;;10.31;100.00
21574;BME280;10948;48.706;9.258;2023-01-15T05:53:57;96499.25;;;9.86;100.00
21574;BME280;10948;48.706;9.258;2023-01-15T05:56:23;96494.03;;;9.86;100.00
21574;BME280;10948;48.706;9.258;2023-01-15T05:58:48;96494.75;;;9.66;100.00
21574;BME280;10948;48.706;9.258;2023-01-15T06:01:14;96494.06;;;9.64;100.00
21574;BME280;10948;48.706;9.258;2023-01-15T06:03:39;96489.09;;;9.50;100.00
21574;BME280;10948;48.706;9.258;2023-01-15T06:06:05;96510.19;;;9.46;100.00
21574;BME280;10948;48.706;9.258;2023-01-15T06:08:31;96508.63;;;9.32;100.00
21574;BME280;10948;48.706;9.258;2023-01-15T06:10:56;96505.34;;;9.30;100.00
21574;BME280;10948;48.706;9.258;2023-01-15T06:13:21;96501.41;;;9.25;100.00
21574;BME280;10948;48.706;9.258;2023-01-15T06:15:47;96507.44;;;9.25;100.00
21574;BME280;10948;48.706;9.258;2023-01-15T06:18:12;96500.63;;;9.24;100.00
21574;BME280;10948;48.706;9.258;2023-01-15T06:20:38;96507.56;;;9.24;100.00
21574;BME280;10948;48.706;9.258;2023-01-15T06:23:03;96517.91;;;9.13;100.00
21574;BME280;10948;48.706;9.258;2023-01-15T06:25:28;96523.94;;;9.13;100.00
21574;BME280;10948;48.706;9.258;2023-01-15T06:27:53;96537.00;;;9.12;100.00
21574;BME280;10948;48.706;9.258;2023-01-15T06:30:19;96541.59;;;9.08;100.00
21574;BME280;10948;48.706;9.258;2023-01-15T06:32:44;96530.03;;;9.01;100.00
21574;BME280;10948;48.706;9.258;2023-01-15T06:35:09;96535.44;;;8.98;100.00
21574;BME280;10948;48.706;9.258;2023-01-15T06:37:37;96548.25;;;8.89;100.00
21574;BME280;10948;48.706;9.258;2023-01-15T06:40:03;96557.63;;;9.02;100.00
21574;BME280;10948;48.706;9.258;2023-01-15T06:42:28;96556.41;;;8.95;100.00
21574;BME280;10948;48.706;9.258;2023-01-15T06:45:12;96579.06;;;8.93;100.00
21574;BME280;10948;48.706;9.258;2023-01-15T06:47:56;96581.53;;;8.95;100.00
21574;BME280;10948;48.706;9.258;2023-01-15T06:50:22;96587.94;;;9.02;100.00
21574;BME280;10948;48.706;9.258;2023-01-15T06:52:47;96591.31;;;8.91;100.00
21574;BME280;10948;48.706;9.258;2023-01-15T06:55:13;96580.81;;;8.69;100.00
21574;BME280;10948;48.706;9.258;2023-01-15T06:57:38;96589.59;;;8.79;100.00
21574;BME280;10948;48.706;9.258;2023-01-15T07:00:04;96598.25;;;8.67;100.00
21574;BME280;10948;48.706;9.258;2023-01-15T07:02:29;96607.31;;;8.85;100.00
21574;BME280;10948;48.706;9.258;2023-01-15T07:04:54;96606.97;;;8.66;100.00
21574;BME280;10948;48.706;9.258;2023-01-15T07:07:20;96616.06;;;8.72;100.00
21574;BME280;10948;48.706;9.258;2023-01-15T07:09:45;96627.38;;;8.71;100.00
21574;BME280;10948;48.706;9.258;2023-01-15T07:12:10;96635.06;;;8.72;100.00
21574;BME280;10948;48.706;9.258;2023-01-15T07:14:35;96640.69;;;8.66;100.00
21574;BME280;10948;48.706;9.258;2023-01-15T07:17:01;96645.88;;;8.66;100.00
21574;BME280;10948;48.706;9.258;2023-01-15T07:19:26;96654.41;;;8.43;100.00
21574;BME280;10948;48.706;9.258;2023-01-15T07:21:52;96665.09;;;8.51;100.00
21574;BME280;10948;48.706;9.258;2023-01-15T07:24:17;96668.41;;;8.53;100.00
21574;BME280;10948;48.706;9.258;2023-01-15T07:26:42;96667.16;;;8.46;100.00
21574;BME280;10948;48.706;9.258;2023-01-15T07:29:08;96678.81;;;8.41;100.00
21574;BME280;10948;48.706;9.258;2023-01-15T07:31:33;96682.28;;;8.02;100.00
21574;BME280;10948;48.706;9.258;2023-01-15T07:33:59;96690.38;;;7.98;100.00
21574;BME280;10948;48.706;9.258;2023-01-15T07:36:25;96680.00;;;8.10;100.00
21574;BME280;10948;48.706;9.258;2023-01-15T07:38:50;96691.00;;;8.01;100.00
21574;BME280;10948;48.706;9.258;2023-01-15T07:41:16;96682.06;;;7.80;100.00
21574;BME280;10948;48.706;9.258;2023-01-15T07:44:03;96698.06;;;7.99;100.00
21574;BME280;10948;48.706;9.258;2023-01-15T07:46:47;96701.53;;;7.86;100.00
21574;BME280;10948;48.706;9.258;2023-01-15T07:49:31;96700.63;;;7.99;100.00
21574;BME280;10948;48.706;9.258;2023-01-15T07:52:13;96699.69;;;7.88;100.00
21574;BME280;10948;48.706;9.258;2023-01-15T07:54:38;96716.44;;;7.82;100.00
21574;BME280;10948;48.706;9.258;2023-01-15T07:57:04;96718.94;;;7.84;100.00
21574;BME280;10948;48.706;9.258;2023-01-15T07:59:29;96727.03;;;7.79;100.00
21574;BME280;10948;48.706;9.258;2023-01-15T08:01:55;96746.72;;;7.94;100.00
21574;BME280;10948;48.706;9.258;2023-01-15T08:04:20;96748.28;;;7.84;100.00
21574;BME280;10948;48.706;9.258;2023-01-15T08:06:45;96753.97;;;7.89;100.00
21574;BME280;10948;48.706;9.258;2023-01-15T08:09:11;96741.72;;;7.79;100.00
21574;BME280;10948;48.706;9.258;2023-01-15T08:11:36;96764.06;;;7.67;100.00
21574;BME280;10948;48.706;9.258;2023-01-15T08:14:20;96769.91;;;7.83;100.00
21574;BME280;10948;48.706;9.258;2023-01-15T08:17:03;96773.19;;;7.73;100.00
21574;BME280;10948;48.706;9.258;2023-01-15T08:19:29;96776.56;;;7.87;100.00
21574;BME280;10948;48.706;9.258;2023-01-15T08:21:54;96778.13;;;7.63;100.00
21574;BME280;10948;48.706;9.258;2023-01-15T08:24:20;96778.59;;;7.82;100.00
21574;BME280;10948;48.706;9.258;2023-01-15T08:26:45;96777.09;;;7.92;100.00
21574;BME280;10948;48.706;9.258;2023-01-15T08:29:10;96785.06;;;7.89;100.00
21574;BME280;10948;48.706;9.258;2023-01-15T08:31:35;96788.03;;;7.83;100.00
21574;BME280;10948;48.706;9.258;2023-01-15T08:34:01;96788.72;;;7.99;100.00
21574;BME280;10948;48.706;9.258;2023-01-15T08:36:26;96802.88;;;7.94;100.00
21574;BME280;10948;48.706;9.258;2023-01-15T08:38:51;96812.16;;;7.71;100.00
21574;BME280;10948;48.706;9.258;2023-01-15T08:41:16;96815.00;;;7.93;100.00
21574;BME280;10948;48.706;9.258;2023-01-15T08:43:42;96817.47;;;7.82;100.00
21574;BME280;10948;48.706;9.258;2023-01-15T08:46:10;96831.88;;;7.86;100.00
21574;BME280;10948;48.706;9.258;2023-01-15T08:48:35;96834.63;;;7.97;100.00
21574;BME280;10948;48.706;9.258;2023-01-15T08:51:04;96837.41;;;8.07;100.00
21574;BME280;10948;48.706;9.258;2023-01-15T08:53:29;96843.44;;;8.07;100.00
21574;BME280;10948;48.706;9.258;2023-01-15T08:55:54;96854.69;;;7.94;100.00
21574;BME280;10948;48.706;9.258;2023-01-15T08:58:20;96841.88;;;8.05;100.00
21574;BME280;10948;48.706;9.258;2023-01-15T09:00:46;96859.91;;;8.06;100.00
21574;BME280;10948;48.706;9.258;2023-01-15T09:03:13;96863.78;;;7.87;100.00
21574;BME280;10948;48.706;9.258;2023-01-15T09:05:38;96868.13;;;7.86;100.00
21574;BME280;10948;48.706;9.258;2023-01-15T09:08:04;96873.88;;;7.91;100.00
21574;BME280;10948;48.706;9.258;2023-01-15T09:10:30;96874.63;;;8.06;100.00
21574;BME280;10948;48.706;9.258;2023-01-15T09:12:59;96869.66;;;8.03;100.00
21574;BME280;10948;48.706;9.258;2023-01-15T09:15:25;96863.06;;;8.11;100.00
21574;BME280;10948;48.706;9.258;2023-01-15T09:17:50;96867.31;;;8.12;100.00
21574;BME280;10948;48.706;9.258;2023-01-15T09:20:15;96872.16;;;8.04;100.00
21574;BME280;10948;48.706;9.258;2023-01-15T09:22:41;96874.44;;;8.09;100.00
21574;BME280;10948;48.706;9.258;2023-01-15T09:25:06;96882.53;;;8.04;100.00
21574;BME280;10948;48.706;9.258;2023-01-15T09:27:31;96868.81;;;8.02;100.00
21574;BME280;10948;48.706;9.258;2023-01-15T09:29:58;96877.09;;;7.95;100.00
21574;BME280;10948;48.706;9.258;2023-01-15T09:32:23;96881.19;;;8.11;100.00
21574;BME280;10948;48.706;9.258;2023-01-15T09:34:49;96886.75;;;8.05;100.00
21574;BME280;10948;48.706;9.258;2023-01-15T09:37:14;96894.56;;;8.18;100.00
21574;BME280;10948;48.706;9.258;2023-01-15T09:39:40;96891.34;;;8.14;100.00
21574;BME280;10948;48.706;9.258;2023-01-15T09:47:15;96908.94;;;8.09;100.00
21574;BME280;10948;48.706;9.258;2023-01-15T09:57:18;96914.63;;;8.02;100.00
21574;BME280;10948;48.706;9.258;2023-01-15T09:59:47;96909.19;;;7.92;100.00
21574;BME280;10948;48.706;9.258;2023-01-15T10:02:19;96896.38;;;8.03;100.00
21574;BME280;10948;48.706;9.258;2023-01-15T10:04:48;96900.44;;;8.07;100.00
21574;BME280;10948;48.706;9.258;2023-01-15T10:07:16;96911.41;;;7.98;100.00
21574;BME280;10948;48.706;9.258;2023-01-15T10:09:43;96919.84;;;8.14;100.00
21574;BME280;10948;48.706;9.258;2023-01-15T10:20:10;96937.13;;;7.87;100.00
21574;BME280;10948;48.706;9.258;2023-01-15T10:22:53;96940.03;;;7.83;100.00
21574;BME280;10948;48.706;9.258;2023-01-15T10:25:25;96945.88;;;7.99;100.00
21574;BME280;10948;48.706;9.258;2023-01-15T10:27:51;96953.22;;;7.92;100.00
21574;BME280;10948;48.706;9.258;2023-01-15T10:30:36;96968.66;;;7.94;100.00
21574;BME280;10948;48.706;9.258;2023-01-15T10:33:10;96964.91;;;7.85;100.00
21574;BME280;10948;48.706;9.258;2023-01-15T10:35:40;96962.28;;;7.99;100.00
21574;BME280;10948;48.706;9.258;2023-01-15T10:45:59;96971.91;;;7.97;100.00
21574;BME280;10948;48.706;9.258;2023-01-15T10:48:37;96965.34;;;7.92;100.00
21574;BME280;10948;48.706;9.258;2023-01-15T10:51:49;96975.44;;;7.82;100.00
21574;BME280;10948;48.706;9.258;2023-01-15T10:56:25;96977.88;;;7.71;100.00
21574;BME280;10948;48.706;9.258;2023-01-15T11:01:32;96975.00;;;7.76;100.00
21574;BME280;10948;48.706;9.258;2023-01-15T11:04:00;96969.50;;;7.94;100.00
21574;BME280;10948;48.706;9.258;2023-01-15T11:06:28;96985.41;;;7.88;100.00
21574;BME280;10948;48.706;9.258;2023-01-15T11:08:55;96980.84;;;7.51;100.00
21574;BME280;10948;48.706;9.258;2023-01-15T11:17:57;97015.13;;;7.41;100.00
21574;BME280;10948;48.706;9.258;2023-01-15T11:20:35;97035.81;;;6.97;100.00
21574;BME280;10948;48.706;9.258;2023-01-15T11:23:08;97031.56;;;6.96;100.00
21574;BME280;10948;48.706;9.258;2023-01-15T11:25:33;97044.91;;;7.04;100.00
21574;BME280;10948;48.706;9.258;2023-01-15T11:28:00;97040.34;;;6.94;100.00
21574;BME280;10948;48.706;9.258;2023-01-15T11:30:30;97042.84;;;6.95;100.00
21574;BME280;10948;48.706;9.258;2023-01-15T11:32:57;97040.28;;;7.09;100.00
21574;BME280;10948;48.706;9.258;2023-01-15T11:35:22;97046.69;;;6.88;100.00
21574;BME280;10948;48.706;9.258;2023-01-15T11:37:48;97052.25;;;6.96;100.00
21574;BME280;10948;48.706;9.258;2023-01-15T11:40:17;97062.59;;;6.96;100.00
21574;BME280;10948;48.706;9.258;2023-01-15T11:42:47;97065.59;;;6.75;100.00
21574;BME280;10948;48.706;9.258;2023-01-15T11:45:31;97078.75;;;6.70;100.00
21574;BME280;10948;48.706;9.258;2023-01-15T11:48:19;97078.88;;;6.53;100.00
21574;BME280;10948;48.706;9.258;2023-01-15T11:51:12;97074.63;;;6.52;100.00
21574;BME280;10948;48.706;9.258;2023-01-15T11:53:48;97075.63;;;6.34;100.00
21574;BME280;10948;48.706;9.258;2023-01-15T11:56:16;97077.28;;;6.35;100.00
21574;BME280;10948;48.706;9.258;2023-01-15T11:59:16;97075.28;;;6.56;100.00
21574;BME280;10948;48.706;9.258;2023-01-15T12:01:35;97082.44;;;6.51;100.00
21574;BME280;10948;48.706;9.258;2023-01-15T12:04:04;97075.09;;;6.43;100.00
21574;BME280;10948;48.706;9.258;2023-01-15T12:06:30;97082.97;;;6.42;100.00
21574;BME280;10948;48.706;9.258;2023-01-15T12:16:32;97104.13;;;6.48;100.00
21574;BME280;10948;48.706;9.258;2023-01-15T12:27:06;97104.53;;;6.41;100.00
21574;BME280;10948;48.706;9.258;2023-01-15T12:29:33;97102.47;;;6.47;100.00
21574;BME280;10948;48.706;9.258;2023-01-15T12:32:10;97107.22;;;6.55;100.00
21574;BME280;10948;48.706;9.258;2023-01-15T12:37:22;97109.94;;;6.36;100.00
21574;BME280;10948;48.706;9.258;2023-01-15T12:39:57;97100.28;;;6.40;100.00
21574;BME280;10948;48.706;9.258;2023-01-15T12:42:25;97089.47;;;6.33;100.00
21574;BME280;10948;48.706;9.258;2023-01-15T12:45:20;97088.13;;;6.26;100.00
21574;BME280;10948;48.706;9.258;2023-01-15T12:47:51;97091.53;;;6.42;100.00
21574;BME280;10948;48.706;9.258;2023-01-15T12:53:12;97089.34;;;6.50;100.00
21574;BME280;10948;48.706;9.258;2023-01-15T12:55:47;97098.94;;;6.48;100.00
21574;BME280;10948;48.706;9.258;2023-01-15T12:58:20;97101.63;;;6.47;100.00
21574;BME280;10948;48.706;9.258;2023-01-15T13:00:50;97108.13;;;6.38;100.00
21574;BME280;10948;48.706;9.258;2023-01-15T13:03:28;97097.38;;;6.15;100.00
21574;BME280;10948;48.706;9.258;2023-01-15T13:05:56;97102.09;;;6.22;100.00
21574;BME280;10948;48.706;9.258;2023-01-15T13:10:52;97114.69;;;6.28;100.00
21574;BME280;10948;48.706;9.258;2023-01-15T13:13:18;97108.88;;;6.40;100.00
21574;BME280;10948;48.706;9.258;2023-01-15T13:21:12;97111.47;;;6.56;100.00
21574;BME280;10948;48.706;9.258;2023-01-15T13:33:41;97116.13;;;6.18;100.00
21574;BME280;10948;48.706;9.258;2023-01-15T13:36:22;97118.44;;;6.07;100.00
21574;BME280;10948;48.706;9.258;2023-01-15T13:38:54;97117.47;;;6.25;100.00
21574;BME280;10948;48.706;9.258;2023-01-15T13:41:20;97104.97;;;6.01;100.00
21574;BME280;10948;48.706;9.258;2023-01-15T13:44:12;97123.19;;;6.30;100.00
21574;BME280;10948;48.706;9.258;2023-01-15T13:46:40;97123.28;;;6.29;100.00
21574;BME280;10948;48.706;9.258;2023-01-15T13:49:13;97136.09;;;6.30;100.00
21574;BME280;10948;48.706;9.258;2023-01-15T13:51:47;97135.13;;;6.48;100.00
21574;BME280;10948;48.706;9.258;2023-01-15T13:54:14;97120.75;;;6.12;100.00
21574;BME280;10948;48.706;9.258;2023-01-15T13:56:41;97123.88;;;6.18;100.00
21574;BME280;10948;48.706;9.258;2023-01-15T14:04:52;97132.13;;;6.25;100.00
21574;BME280;10948;48.706;9.258;2023-01-15T14:07:39;97130.53;;;6.22;100.00
21574;BME280;10948;48.706;9.258;2023-01-15T14:10:09;97137.81;;;6.31;100.00
21574;BME280;10948;48.706;9.258;2023-01-15T14:13:06;97135.47;;;6.42;100.00
21574;BME280;10948;48.706;9.258;2023-01-15T14:18:03;97150.31;;;6.54;100.00
21574;BME280;10948;48.706;9.258;2023-01-15T14:21:10;97137.31;;;6.56;100.00
21574;BME280;10948;48.706;9.258;2023-01-15T14:33:50;97147.69;;;6.23;100.00
21574;BME280;10948;48.706;9.258;2023-01-15T14:36:19;97153.81;;;6.38;100.00
21574;BME280;10948;48.706;9.258;2023-01-15T14:38:49;97154.97;;;6.32;100.00
21574;BME280;10948;48.706;9.258;2023-01-15T14:41:22;97159.81;;;6.38;100.00
21574;BME280;10948;48.706;9.258;2023-01-15T14:43:49;97160.56;;;6.40;100.00
21574;BME280;10948;48.706;9.258;2023-01-15T14:46:20;97163.75;;;6.45;100.00
21574;BME280;10948;48.706;9.258;2023-01-15T14:48:48;97160.47;;;6.42;100.00
21574;BME280;10948;48.706;9.258;2023-01-15T14:51:15;97172.94;;;6.18;100.00
21574;BME280;10948;48.706;9.258;2023-01-15T14:56:17;97162.34;;;6.07;100.00
21574;BME280;10948;48.706;9.258;2023-01-15T14:58:51;97156.25;;;6.08;100.00
21574;BME280;10948;48.706;9.258;2023-01-15T15:03:48;97166.44;;;6.11;100.00
21574;BME280;10948;48.706;9.258;2023-01-15T15:06:14;97155.22;;;5.95;100.00